Patten, Maine
Current Conditions -  °F | °C
As of 2:53 AM on Tuesday 27 Jan 2015 (Local Time) from KMLT Reporting Station
Overcast Overcast  
Wind Chill: -9°   Ceiling: 10000
Heat Index:   Visibility: 10mi
Dew Point: -9°   Wind: 13mph
Humidity: 48%   Direction: 40°NE
Pressure: 30.15"   Gusts: 22mph
Location:  45.99°N, 68.45°W
Report Text: KMLT 270753Z AUTO 04011G19KT 10SM OVC100 M14/M23 A3015 RMK AO2 SLP225 T11391228
Loading
Personal Weather Stations






























Interactive Weather Map New forecast layout! Learn more

10-Day Weather Forecast

Advertisements
Track Severe Weather on mobile